sensor_id;sensor_type;location;lat;lon;timestamp;P1;durP1;ratioP1;P2;durP2;ratioP2
17345;SDS011;8790;53.590;10.002;2023-03-31T00:00:44;18.27;;;4.77;;
17345;SDS011;8790;53.590;10.002;2023-03-31T00:03:16;11.20;;;4.17;;
17345;SDS011;8790;53.590;10.002;2023-03-31T00:05:53;15.87;;;4.43;;
17345;SDS011;8790;53.590;10.002;2023-03-31T00:08:27;13.20;;;4.03;;
17345;SDS011;8790;53.590;10.002;2023-03-31T00:11:05;13.73;;;4.07;;
17345;SDS011;8790;53.590;10.002;2023-03-31T00:13:38;11.43;;;3.80;;
17345;SDS011;8790;53.590;10.002;2023-03-31T00:16:10;18.33;;;4.17;;
17345;SDS011;8790;53.590;10.002;2023-03-31T00:18:42;17.13;;;3.87;;
17345;SDS011;8790;53.590;10.002;2023-03-31T00:21:17;13.30;;;3.50;;
17345;SDS011;8790;53.590;10.002;2023-03-31T00:23:59;14.63;;;3.80;;
17345;SDS011;8790;53.590;10.002;2023-03-31T00:26:32;14.23;;;3.30;;
17345;SDS011;8790;53.590;10.002;2023-03-31T00:29:07;13.07;;;3.07;;
17345;SDS011;8790;53.590;10.002;2023-03-31T00:31:40;16.63;;;4.00;;
17345;SDS011;8790;53.590;10.002;2023-03-31T00:34:12;12.23;;;3.93;;
17345;SDS011;8790;53.590;10.002;2023-03-31T00:36:43;10.97;;;3.10;;
17345;SDS011;8790;53.590;10.002;2023-03-31T00:39:17;15.33;;;4.07;;
17345;SDS011;8790;53.590;10.002;2023-03-31T00:41:49;13.93;;;3.60;;
17345;SDS011;8790;53.590;10.002;2023-03-31T00:44:23;16.13;;;3.40;;
17345;SDS011;8790;53.590;10.002;2023-03-31T00:46:57;16.30;;;3.70;;
17345;SDS011;8790;53.590;10.002;2023-03-31T00:49:32;16.60;;;3.83;;
17345;SDS011;8790;53.590;10.002;2023-03-31T00:52:06;10.00;;;3.23;;
17345;SDS011;8790;53.590;10.002;2023-03-31T00:54:43;12.37;;;3.07;;
17345;SDS011;8790;53.590;10.002;2023-03-31T00:57:19;12.50;;;3.27;;
17345;SDS011;8790;53.590;10.002;2023-03-31T00:59:54;13.47;;;3.00;;
17345;SDS011;8790;53.590;10.002;2023-03-31T01:02:28;15.53;;;3.30;;
17345;SDS011;8790;53.590;10.002;2023-03-31T01:05:00;14.30;;;3.53;;
17345;SDS011;8790;53.590;10.002;2023-03-31T01:07:34;8.93;;;3.07;;
17345;SDS011;8790;53.590;10.002;2023-03-31T01:10:10;11.90;;;3.00;;
17345;SDS011;8790;53.590;10.002;2023-03-31T01:12:43;10.87;;;3.47;;
17345;SDS011;8790;53.590;10.002;2023-03-31T01:15:18;14.57;;;3.40;;
17345;SDS011;8790;53.590;10.002;2023-03-31T01:17:50;13.00;;;3.57;;
17345;SDS011;8790;53.590;10.002;2023-03-31T01:20:26;14.73;;;3.57;;
17345;SDS011;8790;53.590;10.002;2023-03-31T01:23:26;10.80;;;3.30;;
17345;SDS011;8790;53.590;10.002;2023-03-31T01:26:20;8.83;;;2.77;;
17345;SDS011;8790;53.590;10.002;2023-03-31T01:29:10;12.37;;;2.87;;
17345;SDS011;8790;53.590;10.002;2023-03-31T01:32:02;15.00;;;3.07;;
17345;SDS011;8790;53.590;10.002;2023-03-31T01:38:12;15.70;;;2.77;;
17345;SDS011;8790;53.590;10.002;2023-03-31T01:41:08;13.63;;;3.37;;
17345;SDS011;8790;53.590;10.002;2023-03-31T01:43:51;13.20;;;3.20;;
17345;SDS011;8790;53.590;10.002;2023-03-31T01:46:29;14.20;;;3.90;;
17345;SDS011;8790;53.590;10.002;2023-03-31T01:49:06;12.67;;;3.23;;
17345;SDS011;8790;53.590;10.002;2023-03-31T01:51:45;16.77;;;3.50;;
17345;SDS011;8790;53.590;10.002;2023-03-31T01:54:28;17.63;;;3.80;;
17345;SDS011;8790;53.590;10.002;2023-03-31T01:57:11;11.00;;;3.13;;
17345;SDS011;8790;53.590;10.002;2023-03-31T01:59:46;16.30;;;3.83;;
17345;SDS011;8790;53.590;10.002;2023-03-31T02:02:23;12.23;;;3.30;;
17345;SDS011;8790;53.590;10.002;2023-03-31T02:04:59;13.00;;;3.43;;
17345;SDS011;8790;53.590;10.002;2023-03-31T02:07:35;15.93;;;3.60;;
17345;SDS011;8790;53.590;10.002;2023-03-31T02:10:11;13.40;;;3.60;;
17345;SDS011;8790;53.590;10.002;2023-03-31T02:12:47;16.03;;;4.03;;
17345;SDS011;8790;53.590;10.002;2023-03-31T02:15:21;14.80;;;3.87;;
17345;SDS011;8790;53.590;10.002;2023-03-31T02:17:57;13.37;;;3.63;;
17345;SDS011;8790;53.590;10.002;2023-03-31T02:20:32;11.23;;;3.90;;
17345;SDS011;8790;53.590;10.002;2023-03-31T02:23:04;11.60;;;3.80;;
17345;SDS011;8790;53.590;10.002;2023-03-31T02:25:37;14.43;;;4.00;;
17345;SDS011;8790;53.590;10.002;2023-03-31T02:28:17;12.33;;;4.27;;
17345;SDS011;8790;53.590;10.002;2023-03-31T02:30:53;10.50;;;4.10;;
17345;SDS011;8790;53.590;10.002;2023-03-31T02:33:36;16.63;;;5.20;;
17345;SDS011;8790;53.590;10.002;2023-03-31T02:36:08;8.60;;;3.90;;
17345;SDS011;8790;53.590;10.002;2023-03-31T02:38:42;15.07;;;4.53;;
17345;SDS011;8790;53.590;10.002;2023-03-31T02:41:15;12.37;;;4.43;;
17345;SDS011;8790;53.590;10.002;2023-03-31T02:43:48;9.83;;;4.50;;
17345;SDS011;8790;53.590;10.002;2023-03-31T02:46:20;11.47;;;4.10;;
17345;SDS011;8790;53.590;10.002;2023-03-31T02:48:52;16.00;;;4.73;;
17345;SDS011;8790;53.590;10.002;2023-03-31T02:51:29;12.40;;;4.27;;
17345;SDS011;8790;53.590;10.002;2023-03-31T02:54:35;12.50;;;4.30;;
17345;SDS011;8790;53.590;10.002;2023-03-31T03:00:54;14.27;;;4.57;;
17345;SDS011;8790;53.590;10.002;2023-03-31T03:03:45;12.20;;;4.70;;
17345;SDS011;8790;53.590;10.002;2023-03-31T03:06:31;9.93;;;4.50;;
17345;SDS011;8790;53.590;10.002;2023-03-31T03:09:25;11.10;;;4.73;;
17345;SDS011;8790;53.590;10.002;2023-03-31T03:12:08;13.93;;;5.10;;
17345;SDS011;8790;53.590;10.002;2023-03-31T03:14:47;12.70;;;4.80;;
17345;SDS011;8790;53.590;10.002;2023-03-31T03:17:27;13.47;;;5.30;;
17345;SDS011;8790;53.590;10.002;2023-03-31T03:20:04;13.23;;;4.77;;
17345;SDS011;8790;53.590;10.002;2023-03-31T03:22:38;11.67;;;4.83;;
17345;SDS011;8790;53.590;10.002;2023-03-31T03:25:11;13.03;;;4.97;;
17345;SDS011;8790;53.590;10.002;2023-03-31T03:27:46;9.73;;;4.67;;
17345;SDS011;8790;53.590;10.002;2023-03-31T03:30:18;13.73;;;4.77;;
17345;SDS011;8790;53.590;10.002;2023-03-31T03:32:51;12.73;;;4.97;;
17345;SDS011;8790;53.590;10.002;2023-03-31T03:35:23;12.67;;;4.80;;
17345;SDS011;8790;53.590;10.002;2023-03-31T03:37:55;9.47;;;4.67;;
17345;SDS011;8790;53.590;10.002;2023-03-31T03:40:27;12.97;;;4.80;;
17345;SDS011;8790;53.590;10.002;2023-03-31T03:42:59;12.67;;;5.27;;
17345;SDS011;8790;53.590;10.002;2023-03-31T03:45:30;10.23;;;5.00;;
17345;SDS011;8790;53.590;10.002;2023-03-31T03:48:03;10.43;;;4.90;;
17345;SDS011;8790;53.590;10.002;2023-03-31T03:50:36;10.90;;;5.67;;
17345;SDS011;8790;53.590;10.002;2023-03-31T03:53:08;12.80;;;5.27;;
17345;SDS011;8790;53.590;10.002;2023-03-31T03:55:40;14.40;;;5.77;;
17345;SDS011;8790;53.590;10.002;2023-03-31T03:58:11;12.53;;;5.63;;
17345;SDS011;8790;53.590;10.002;2023-03-31T04:00:43;14.80;;;5.53;;
17345;SDS011;8790;53.590;10.002;2023-03-31T04:03:16;17.03;;;5.73;;
17345;SDS011;8790;53.590;10.002;2023-03-31T04:05:48;14.17;;;5.97;;
17345;SDS011;8790;53.590;10.002;2023-03-31T04:08:20;15.67;;;5.63;;
17345;SDS011;8790;53.590;10.002;2023-03-31T04:10:52;13.03;;;5.13;;
17345;SDS011;8790;53.590;10.002;2023-03-31T04:13:23;8.57;;;5.13;;
17345;SDS011;8790;53.590;10.002;2023-03-31T04:15:55;11.53;;;4.87;;
17345;SDS011;8790;53.590;10.002;2023-03-31T04:18:28;10.47;;;5.10;;
17345;SDS011;8790;53.590;10.002;2023-03-31T04:21:00;11.83;;;5.20;;
17345;SDS011;8790;53.590;10.002;2023-03-31T04:23:34;12.50;;;5.13;;
17345;SDS011;8790;53.590;10.002;2023-03-31T04:26:07;12.40;;;5.37;;
17345;SDS011;8790;53.590;10.002;2023-03-31T04:28:39;12.57;;;5.67;;
17345;SDS011;8790;53.590;10.002;2023-03-31T04:31:12;14.07;;;5.30;;
17345;SDS011;8790;53.590;10.002;2023-03-31T04:33:47;9.93;;;4.97;;
17345;SDS011;8790;53.590;10.002;2023-03-31T04:36:19;11.87;;;6.27;;
17345;SDS011;8790;53.590;10.002;2023-03-31T04:38:51;11.63;;;5.97;;
17345;SDS011;8790;53.590;10.002;2023-03-31T04:41:24;14.50;;;6.43;;
17345;SDS011;8790;53.590;10.002;2023-03-31T04:43:57;11.60;;;5.83;;
17345;SDS011;8790;53.590;10.002;2023-03-31T04:46:29;13.03;;;6.07;;
17345;SDS011;8790;53.590;10.002;2023-03-31T04:49:02;14.57;;;6.73;;
17345;SDS011;8790;53.590;10.002;2023-03-31T04:51:34;11.60;;;6.33;;
17345;SDS011;8790;53.590;10.002;2023-03-31T04:54:06;12.57;;;6.83;;
17345;SDS011;8790;53.590;10.002;2023-03-31T04:56:38;11.63;;;6.43;;
17345;SDS011;8790;53.590;10.002;2023-03-31T04:59:10;15.27;;;7.07;;
17345;SDS011;8790;53.590;10.002;2023-03-31T05:01:42;12.70;;;6.73;;
17345;SDS011;8790;53.590;10.002;2023-03-31T05:04:15;13.00;;;6.97;;
17345;SDS011;8790;53.590;10.002;2023-03-31T05:06:47;10.73;;;7.30;;
17345;SDS011;8790;53.590;10.002;2023-03-31T05:09:19;13.10;;;6.67;;
17345;SDS011;8790;53.590;10.002;2023-03-31T05:11:51;15.77;;;7.73;;
17345;SDS011;8790;53.590;10.002;2023-03-31T05:14:23;13.20;;;7.20;;
17345;SDS011;8790;53.590;10.002;2023-03-31T05:16:55;11.03;;;7.37;;
17345;SDS011;8790;53.590;10.002;2023-03-31T05:19:29;12.63;;;7.30;;
17345;SDS011;8790;53.590;10.002;2023-03-31T05:22:01;13.73;;;7.97;;
17345;SDS011;8790;53.590;10.002;2023-03-31T05:24:33;12.60;;;7.47;;
17345;SDS011;8790;53.590;10.002;2023-03-31T05:27:04;13.70;;;7.70;;
17345;SDS011;8790;53.590;10.002;2023-03-31T05:29:36;14.77;;;7.70;;
17345;SDS011;8790;53.590;10.002;2023-03-31T05:32:08;12.60;;;7.23;;
17345;SDS011;8790;53.590;10.002;2023-03-31T05:34:41;15.30;;;7.57;;
17345;SDS011;8790;53.590;10.002;2023-03-31T05:37:13;14.47;;;7.03;;
17345;SDS011;8790;53.590;10.002;2023-03-31T05:39:44;12.87;;;6.97;;
17345;SDS011;8790;53.590;10.002;2023-03-31T05:42:16;13.47;;;7.40;;
17345;SDS011;8790;53.590;10.002;2023-03-31T05:44:48;15.33;;;6.80;;
17345;SDS011;8790;53.590;10.002;2023-03-31T05:47:20;18.23;;;7.40;;
17345;SDS011;8790;53.590;10.002;2023-03-31T05:49:53;15.07;;;7.87;;
17345;SDS011;8790;53.590;10.002;2023-03-31T05:52:25;15.53;;;7.40;;
17345;SDS011;8790;53.590;10.002;2023-03-31T05:54:57;13.57;;;7.17;;
17345;SDS011;8790;53.590;10.002;2023-03-31T05:57:28;15.90;;;7.53;;
17345;SDS011;8790;53.590;10.002;2023-03-31T06:00:01;14.27;;;7.03;;
17345;SDS011;8790;53.590;10.002;2023-03-31T06:02:35;17.83;;;7.00;;
17345;SDS011;8790;53.590;10.002;2023-03-31T06:05:08;13.33;;;7.20;;
17345;SDS011;8790;53.590;10.002;2023-03-31T06:07:40;15.70;;;6.80;;
17345;SDS011;8790;53.590;10.002;2023-03-31T06:10:11;12.83;;;6.63;;
17345;SDS011;8790;53.590;10.002;2023-03-31T06:12:43;13.93;;;6.80;;
17345;SDS011;8790;53.590;10.002;2023-03-31T06:15:15;11.93;;;6.30;;
17345;SDS011;8790;53.590;10.002;2023-03-31T06:17:47;13.80;;;6.43;;
17345;SDS011;8790;53.590;10.002;2023-03-31T06:20:20;16.00;;;6.60;;
17345;SDS011;8790;53.590;10.002;2023-03-31T06:22:51;11.67;;;6.20;;
17345;SDS011;8790;53.590;10.002;2023-03-31T06:25:23;10.33;;;5.97;;
17345;SDS011;8790;53.590;10.002;2023-03-31T06:27:55;12.70;;;6.23;;
17345;SDS011;8790;53.590;10.002;2023-03-31T06:30:26;10.30;;;6.20;;
17345;SDS011;8790;53.590;10.002;2023-03-31T06:32:58;9.93;;;6.30;;
17345;SDS011;8790;53.590;10.002;2023-03-31T06:35:31;13.03;;;6.57;;
17345;SDS011;8790;53.590;10.002;2023-03-31T06:38:03;12.77;;;5.87;;
17345;SDS011;8790;53.590;10.002;2023-03-31T06:40:35;10.70;;;6.13;;
17345;SDS011;8790;53.590;10.002;2023-03-31T06:43:07;14.60;;;7.00;;
17345;SDS011;8790;53.590;10.002;2023-03-31T06:45:38;10.87;;;6.37;;
17345;SDS011;8790;53.590;10.002;2023-03-31T06:48:10;12.93;;;6.03;;
17345;SDS011;8790;53.590;10.002;2023-03-31T06:50:43;9.67;;;6.20;;
17345;SDS011;8790;53.590;10.002;2023-03-31T06:53:15;14.03;;;6.07;;
17345;SDS011;8790;53.590;10.002;2023-03-31T06:55:47;11.53;;;6.00;;
17345;SDS011;8790;53.590;10.002;2023-03-31T06:58:19;14.30;;;6.20;;
17345;SDS011;8790;53.590;10.002;2023-03-31T07:00:51;13.00;;;6.20;;
17345;SDS011;8790;53.590;10.002;2023-03-31T07:03:23;14.83;;;6.20;;
17345;SDS011;8790;53.590;10.002;2023-03-31T07:05:56;12.87;;;6.10;;
17345;SDS011;8790;53.590;10.002;2023-03-31T07:08:28;12.60;;;6.47;;
17345;SDS011;8790;53.590;10.002;2023-03-31T07:11:00;12.13;;;5.73;;
17345;SDS011;8790;53.590;10.002;2023-03-31T07:13:32;11.93;;;5.93;;
17345;SDS011;8790;53.590;10.002;2023-03-31T07:16:04;12.33;;;6.10;;
17345;SDS011;8790;53.590;10.002;2023-03-31T07:18:36;11.43;;;6.40;;
17345;SDS011;8790;53.590;10.002;2023-03-31T07:21:12;11.90;;;6.23;;
17345;SDS011;8790;53.590;10.002;2023-03-31T07:23:44;9.90;;;5.53;;
17345;SDS011;8790;53.590;10.002;2023-03-31T07:26:15;12.90;;;5.97;;
17345;SDS011;8790;53.590;10.002;2023-03-31T07:28:47;11.83;;;6.10;;
17345;SDS011;8790;53.590;10.002;2023-03-31T07:31:19;11.80;;;5.70;;
17345;SDS011;8790;53.590;10.002;2023-03-31T07:33:50;13.83;;;6.00;;
17345;SDS011;8790;53.590;10.002;2023-03-31T07:36:23;10.07;;;5.97;;
17345;SDS011;8790;53.590;10.002;2023-03-31T07:38:56;8.80;;;4.97;;
17345;SDS011;8790;53.590;10.002;2023-03-31T07:41:28;9.97;;;4.93;;
17345;SDS011;8790;53.590;10.002;2023-03-31T07:44:00;11.97;;;6.20;;
17345;SDS011;8790;53.590;10.002;2023-03-31T07:46:32;14.13;;;6.30;;
17345;SDS011;8790;53.590;10.002;2023-03-31T07:49:03;11.40;;;5.87;;
17345;SDS011;8790;53.590;10.002;2023-03-31T07:51:38;12.03;;;5.77;;
17345;SDS011;8790;53.590;10.002;2023-03-31T07:54:09;9.47;;;6.10;;
17345;SDS011;8790;53.590;10.002;2023-03-31T07:56:41;11.17;;;5.67;;
17345;SDS011;8790;53.590;10.002;2023-03-31T07:59:13;10.13;;;5.73;;
17345;SDS011;8790;53.590;10.002;2023-03-31T08:01:45;8.57;;;5.60;;
17345;SDS011;8790;53.590;10.002;2023-03-31T08:04:16;11.90;;;5.90;;
17345;SDS011;8790;53.590;10.002;2023-03-31T08:06:50;7.37;;;4.77;;
17345;SDS011;8790;53.590;10.002;2023-03-31T08:09:21;8.87;;;4.67;;
17345;SDS011;8790;53.590;10.002;2023-03-31T08:11:53;8.03;;;4.83;;
17345;SDS011;8790;53.590;10.002;2023-03-31T08:14:25;10.07;;;4.97;;
17345;SDS011;8790;53.590;10.002;2023-03-31T08:16:57;7.10;;;4.80;;
17345;SDS011;8790;53.590;10.002;2023-03-31T08:19:29;10.43;;;5.10;;
17345;SDS011;8790;53.590;10.002;2023-03-31T08:22:02;8.73;;;4.90;;
17345;SDS011;8790;53.590;10.002;2023-03-31T08:24:34;8.63;;;5.10;;
17345;SDS011;8790;53.590;10.002;2023-03-31T08:27:05;9.60;;;5.33;;
17345;SDS011;8790;53.590;10.002;2023-03-31T08:29:37;7.63;;;5.00;;
17345;SDS011;8790;53.590;10.002;2023-03-31T08:32:09;8.90;;;5.77;;
17345;SDS011;8790;53.590;10.002;2023-03-31T08:34:40;13.13;;;5.27;;
17345;SDS011;8790;53.590;10.002;2023-03-31T08:37:14;7.07;;;4.80;;
17345;SDS011;8790;53.590;10.002;2023-03-31T08:39:45;8.43;;;4.83;;
17345;SDS011;8790;53.590;10.002;2023-03-31T08:42:19;8.17;;;5.00;;
17345;SDS011;8790;53.590;10.002;2023-03-31T08:44:56;7.63;;;4.97;;
17345;SDS011;8790;53.590;10.002;2023-03-31T08:47:30;8.93;;;4.90;;
17345;SDS011;8790;53.590;10.002;2023-03-31T08:50:04;10.00;;;4.53;;
17345;SDS011;8790;53.590;10.002;2023-03-31T08:52:44;7.80;;;4.57;;
17345;SDS011;8790;53.590;10.002;2023-03-31T08:55:21;8.37;;;4.57;;
17345;SDS011;8790;53.590;10.002;2023-03-31T08:57:56;6.83;;;4.67;;
17345;SDS011;8790;53.590;10.002;2023-03-31T09:00:36;8.87;;;4.60;;
17345;SDS011;8790;53.590;10.002;2023-03-31T09:03:12;9.63;;;5.00;;
17345;SDS011;8790;53.590;10.002;2023-03-31T09:05:53;7.07;;;5.03;;
17345;SDS011;8790;53.590;10.002;2023-03-31T09:08:35;8.63;;;5.00;;
17345;SDS011;8790;53.590;10.002;2023-03-31T09:11:09;9.30;;;5.20;;
17345;SDS011;8790;53.590;10.002;2023-03-31T09:13:46;6.30;;;4.30;;
17345;SDS011;8790;53.590;10.002;2023-03-31T09:16:47;6.83;;;4.40;;
17345;SDS011;8790;53.590;10.002;2023-03-31T09:19:31;6.47;;;4.40;;
17345;SDS011;8790;53.590;10.002;2023-03-31T09:22:08;6.37;;;4.20;;
17345;SDS011;8790;53.590;10.002;2023-03-31T09:24:51;8.23;;;3.93;;
17345;SDS011;8790;53.590;10.002;2023-03-31T09:27:29;5.93;;;3.97;;
17345;SDS011;8790;53.590;10.002;2023-03-31T09:30:09;8.73;;;4.13;;
17345;SDS011;8790;53.590;10.002;2023-03-31T09:32:45;8.70;;;3.77;;
17345;SDS011;8790;53.590;10.002;2023-03-31T09:35:21;6.73;;;3.57;;
17345;SDS011;8790;53.590;10.002;2023-03-31T09:37:54;5.17;;;3.27;;
17345;SDS011;8790;53.590;10.002;2023-03-31T09:40:27;7.73;;;3.50;;
17345;SDS011;8790;53.590;10.002;2023-03-31T09:43:01;7.73;;;3.50;;
17345;SDS011;8790;53.590;10.002;2023-03-31T09:45:35;7.40;;;3.40;;
17345;SDS011;8790;53.590;10.002;2023-03-31T09:48:09;8.10;;;3.33;;
17345;SDS011;8790;53.590;10.002;2023-03-31T09:50:44;5.13;;;3.63;;
17345;SDS011;8790;53.590;10.002;2023-03-31T09:53:21;8.07;;;3.70;;
17345;SDS011;8790;53.590;10.002;2023-03-31T09:56:01;9.37;;;3.97;;
17345;SDS011;8790;53.590;10.002;2023-03-31T09:58:39;6.90;;;3.87;;
17345;SDS011;8790;53.590;10.002;2023-03-31T10:01:11;6.07;;;3.70;;
17345;SDS011;8790;53.590;10.002;2023-03-31T10:03:46;6.63;;;3.73;;
17345;SDS011;8790;53.590;10.002;2023-03-31T10:06:21;6.30;;;3.63;;
17345;SDS011;8790;53.590;10.002;2023-03-31T10:08:54;5.73;;;3.60;;
17345;SDS011;8790;53.590;10.002;2023-03-31T10:11:30;8.00;;;3.67;;
17345;SDS011;8790;53.590;10.002;2023-03-31T10:14:03;7.70;;;3.90;;
17345;SDS011;8790;53.590;10.002;2023-03-31T10:16:42;6.57;;;3.57;;
17345;SDS011;8790;53.590;10.002;2023-03-31T10:19:18;6.47;;;3.50;;
17345;SDS011;8790;53.590;10.002;2023-03-31T10:21:54;7.37;;;3.97;;
17345;SDS011;8790;53.590;10.002;2023-03-31T10:24:35;5.67;;;3.73;;
17345;SDS011;8790;53.590;10.002;2023-03-31T10:27:15;6.50;;;3.90;;
17345;SDS011;8790;53.590;10.002;2023-03-31T10:29:51;7.13;;;4.03;;
17345;SDS011;8790;53.590;10.002;2023-03-31T10:32:25;8.43;;;4.13;;
17345;SDS011;8790;53.590;10.002;2023-03-31T10:35:05;5.63;;;4.20;;
17345;SDS011;8790;53.590;10.002;2023-03-31T10:37:38;8.50;;;4.40;;
17345;SDS011;8790;53.590;10.002;2023-03-31T10:40:12;8.17;;;4.73;;
17345;SDS011;8790;53.590;10.002;2023-03-31T10:42:48;8.07;;;3.80;;
17345;SDS011;8790;53.590;10.002;2023-03-31T10:45:30;6.60;;;3.80;;
17345;SDS011;8790;53.590;10.002;2023-03-31T10:48:15;6.93;;;3.80;;
17345;SDS011;8790;53.590;10.002;2023-03-31T10:50:49;4.87;;;3.57;;
17345;SDS011;8790;53.590;10.002;2023-03-31T10:53:21;5.20;;;3.70;;
17345;SDS011;8790;53.590;10.002;2023-03-31T10:56:05;6.23;;;4.20;;
17345;SDS011;8790;53.590;10.002;2023-03-31T10:58:49;5.50;;;3.70;;
17345;SDS011;8790;53.590;10.002;2023-03-31T11:01:34;5.87;;;3.80;;
17345;SDS011;8790;53.590;10.002;2023-03-31T11:07:36;6.80;;;4.23;;
17345;SDS011;8790;53.590;10.002;2023-03-31T11:10:27;6.87;;;3.30;;
17345;SDS011;8790;53.590;10.002;2023-03-31T11:13:06;4.30;;;3.00;;
17345;SDS011;8790;53.590;10.002;2023-03-31T11:15:49;5.37;;;3.53;;
17345;SDS011;8790;53.590;10.002;2023-03-31T11:18:31;8.00;;;3.27;;
17345;SDS011;8790;53.590;10.002;2023-03-31T11:21:17;4.73;;;2.97;;
17345;SDS011;8790;53.590;10.002;2023-03-31T11:23:57;5.67;;;3.27;;
17345;SDS011;8790;53.590;10.002;2023-03-31T11:26:39;4.57;;;3.10;;
17345;SDS011;8790;53.590;10.002;2023-03-31T11:29:27;5.27;;;2.70;;
17345;SDS011;8790;53.590;10.002;2023-03-31T11:32:14;6.83;;;3.00;;
17345;SDS011;8790;53.590;10.002;2023-03-31T11:34:59;4.90;;;2.80;;
17345;SDS011;8790;53.590;10.002;2023-03-31T11:37:40;6.90;;;3.40;;
17345;SDS011;8790;53.590;10.002;2023-03-31T11:40:27;6.03;;;3.90;;
17345;SDS011;8790;53.590;10.002;2023-03-31T11:43:09;6.10;;;3.70;;
17345;SDS011;8790;53.590;10.002;2023-03-31T11:45:56;6.03;;;4.00;;
17345;SDS011;8790;53.590;10.002;2023-03-31T11:48:34;7.20;;;3.40;;
17345;SDS011;8790;53.590;10.002;2023-03-31T11:51:10;9.00;;;3.90;;
17345;SDS011;8790;53.590;10.002;2023-03-31T11:53:46;5.70;;;3.43;;
17345;SDS011;8790;53.590;10.002;2023-03-31T11:56:19;4.73;;;2.87;;
17345;SDS011;8790;53.590;10.002;2023-03-31T11:58:53;6.67;;;2.70;;
17345;SDS011;8790;53.590;10.002;2023-03-31T12:01:28;5.63;;;2.90;;
17345;SDS011;8790;53.590;10.002;2023-03-31T12:04:05;4.97;;;2.50;;
17345;SDS011;8790;53.590;10.002;2023-03-31T12:06:44;4.03;;;2.30;;
17345;SDS011;8790;53.590;10.002;2023-03-31T12:09:18;4.17;;;2.77;;
17345;SDS011;8790;53.590;10.002;2023-03-31T12:11:58;3.30;;;2.50;;
17345;SDS011;8790;53.590;10.002;2023-03-31T12:14:36;5.20;;;2.63;;
17345;SDS011;8790;53.590;10.002;2023-03-31T12:17:12;5.10;;;2.80;;
17345;SDS011;8790;53.590;10.002;2023-03-31T12:19:47;3.93;;;2.43;;
17345;SDS011;8790;53.590;10.002;2023-03-31T12:22:22;3.30;;;2.50;;
17345;SDS011;8790;53.590;10.002;2023-03-31T12:24:58;4.17;;;3.00;;
17345;SDS011;8790;53.590;10.002;2023-03-31T12:27:31;4.70;;;2.90;;
17345;SDS011;8790;53.590;10.002;2023-03-31T12:30:09;5.80;;;3.40;;
17345;SDS011;8790;53.590;10.002;2023-03-31T12:32:47;4.93;;;3.60;;
17345;SDS011;8790;53.590;10.002;2023-03-31T12:35:26;4.30;;;3.43;;
17345;SDS011;8790;53.590;10.002;2023-03-31T12:38:12;4.73;;;4.00;;
17345;SDS011;8790;53.590;10.002;2023-03-31T12:40:58;4.50;;;3.93;;
17345;SDS011;8790;53.590;10.002;2023-03-31T12:43:51;5.47;;;4.13;;
17345;SDS011;8790;53.590;10.002;2023-03-31T12:46:54;7.17;;;4.13;;
17345;SDS011;8790;53.590;10.002;2023-03-31T12:52:38;6.03;;;4.00;;
17345;SDS011;8790;53.590;10.002;2023-03-31T12:55:23;6.87;;;4.73;;
17345;SDS011;8790;53.590;10.002;2023-03-31T13:01:14;6.10;;;4.70;;
17345;SDS011;8790;53.590;10.002;2023-03-31T13:03:48;7.10;;;4.87;;
17345;SDS011;8790;53.590;10.002;2023-03-31T13:06:50;6.50;;;4.60;;
17345;SDS011;8790;53.590;10.002;2023-03-31T13:12:24;8.40;;;5.03;;
17345;SDS011;8790;53.590;10.002;2023-03-31T13:15:00;7.17;;;5.53;;
17345;SDS011;8790;53.590;10.002;2023-03-31T13:17:35;7.13;;;5.47;;
17345;SDS011;8790;53.590;10.002;2023-03-31T13:20:29;6.33;;;5.03;;
17345;SDS011;8790;53.590;10.002;2023-03-31T13:23:14;8.47;;;5.53;;
17345;SDS011;8790;53.590;10.002;2023-03-31T13:25:49;7.67;;;5.57;;
17345;SDS011;8790;53.590;10.002;2023-03-31T13:28:32;7.30;;;5.67;;
17345;SDS011;8790;53.590;10.002;2023-03-31T13:31:09;6.80;;;5.77;;
17345;SDS011;8790;53.590;10.002;2023-03-31T13:33:42;7.30;;;5.70;;
17345;SDS011;8790;53.590;10.002;2023-03-31T13:36:18;8.67;;;6.27;;
17345;SDS011;8790;53.590;10.002;2023-03-31T13:42:40;7.43;;;6.07;;
17345;SDS011;8790;53.590;10.002;2023-03-31T13:45:46;6.77;;;5.20;;
17345;SDS011;8790;53.590;10.002;2023-03-31T13:57:38;8.00;;;4.90;;
17345;SDS011;8790;53.590;10.002;2023-03-31T14:00:41;6.17;;;4.50;;
17345;SDS011;8790;53.590;10.002;2023-03-31T14:03:28;5.00;;;4.07;;
17345;SDS011;8790;53.590;10.002;2023-03-31T14:06:10;7.10;;;4.37;;
17345;SDS011;8790;53.590;10.002;2023-03-31T14:08:50;5.93;;;4.00;;
17345;SDS011;8790;53.590;10.002;2023-03-31T14:11:25;5.67;;;4.23;;
17345;SDS011;8790;53.590;10.002;2023-03-31T14:13:59;4.23;;;3.77;;
17345;SDS011;8790;53.590;10.002;2023-03-31T14:16:35;5.17;;;3.87;;
17345;SDS011;8790;53.590;10.002;2023-03-31T14:19:14;5.23;;;3.50;;
17345;SDS011;8790;53.590;10.002;2023-03-31T14:22:00;5.10;;;3.70;;
17345;SDS011;8790;53.590;10.002;2023-03-31T14:24:40;4.13;;;3.33;;
17345;SDS011;8790;53.590;10.002;2023-03-31T14:27:21;4.07;;;3.27;;
17345;SDS011;8790;53.590;10.002;2023-03-31T14:30:10;4.20;;;3.10;;
17345;SDS011;8790;53.590;10.002;2023-03-31T14:32:52;5.47;;;3.10;;
17345;SDS011;8790;53.590;10.002;2023-03-31T14:35:35;4.63;;;3.33;;
17345;SDS011;8790;53.590;10.002;2023-03-31T14:38:12;3.80;;;3.13;;
17345;SDS011;8790;53.590;10.002;2023-03-31T14:40:49;3.27;;;2.97;;
17345;SDS011;8790;53.590;10.002;2023-03-31T14:43:25;5.70;;;3.30;;
17345;SDS011;8790;53.590;10.002;2023-03-31T14:46:00;3.40;;;3.00;;
17345;SDS011;8790;53.590;10.002;2023-03-31T14:48:34;3.47;;;2.90;;
17345;SDS011;8790;53.590;10.002;2023-03-31T14:51:14;4.87;;;3.17;;
17345;SDS011;8790;53.590;10.002;2023-03-31T14:53:47;3.60;;;2.80;;
17345;SDS011;8790;53.590;10.002;2023-03-31T14:56:27;3.00;;;2.70;;
17345;SDS011;8790;53.590;10.002;2023-03-31T14:59:05;3.83;;;2.70;;
17345;SDS011;8790;53.590;10.002;2023-03-31T15:01:38;2.80;;;2.27;;
17345;SDS011;8790;53.590;10.002;2023-03-31T15:04:12;3.13;;;2.83;;
17345;SDS011;8790;53.590;10.002;2023-03-31T15:06:47;2.93;;;2.73;;
17345;SDS011;8790;53.590;10.002;2023-03-31T15:09:21;3.07;;;2.77;;
17345;SDS011;8790;53.590;10.002;2023-03-31T15:11:57;3.40;;;2.90;;
17345;SDS011;8790;53.590;10.002;2023-03-31T15:14:31;3.93;;;2.87;;
17345;SDS011;8790;53.590;10.002;2023-03-31T15:17:05;3.20;;;2.90;;
17345;SDS011;8790;53.590;10.002;2023-03-31T15:19:53;3.03;;;2.73;;
17345;SDS011;8790;53.590;10.002;2023-03-31T15:22:26;2.77;;;2.40;;
17345;SDS011;8790;53.590;10.002;2023-03-31T15:24:59;2.63;;;2.30;;
17345;SDS011;8790;53.590;10.002;2023-03-31T15:27:32;3.53;;;2.40;;
17345;SDS011;8790;53.590;10.002;2023-03-31T15:30:06;2.20;;;2.00;;
17345;SDS011;8790;53.590;10.002;2023-03-31T15:32:39;2.73;;;1.97;;
17345;SDS011;8790;53.590;10.002;2023-03-31T15:35:18;2.00;;;1.70;;
17345;SDS011;8790;53.590;10.002;2023-03-31T15:37:53;2.80;;;2.13;;
17345;SDS011;8790;53.590;10.002;2023-03-31T15:40:29;2.30;;;1.70;;
17345;SDS011;8790;53.590;10.002;2023-03-31T15:43:12;2.33;;;1.60;;
17345;SDS011;8790;53.590;10.002;2023-03-31T15:45:47;2.27;;;1.80;;
17345;SDS011;8790;53.590;10.002;2023-03-31T15:48:21;1.70;;;1.60;;
17345;SDS011;8790;53.590;10.002;2023-03-31T15:51:04;10.17;;;7.07;;
17345;SDS011;8790;53.590;10.002;2023-03-31T15:53:37;6.63;;;5.20;;
17345;SDS011;8790;53.590;10.002;2023-03-31T15:56:23;5.40;;;2.77;;
17345;SDS011;8790;53.590;10.002;2023-03-31T15:58:58;2.47;;;1.87;;
17345;SDS011;8790;53.590;10.002;2023-03-31T16:01:32;4.93;;;1.83;;
17345;SDS011;8790;53.590;10.002;2023-03-31T16:04:08;2.20;;;1.90;;
17345;SDS011;8790;53.590;10.002;2023-03-31T16:06:46;3.10;;;1.80;;